Etusivu
METAR-TAF:

METAR-TAF

Lentoasemat :

Funchal, Madeira, Portugali

Madeiran lentoasema

Leveyspiiri: 32-41-52N, Pituuspiiri: 016-46-28W, korkeus merenpinnasta: 59 m

Tämänhetkinen sää

Tämä raportti tehtiin 36 minuuttia sitten, kello 14.00 UTC
Tuuli 18 kn koillisesta
Lämpötila 28°C
Kosteus 51%
Ilmanpaine 1017 hPa
Näkyvyys 10 km tai enemmän
Muutamia pilviä 1500 ft:n korkeudessa

METAR: LPMA 271400Z 04018KT 9999 FEW015 28/17 Q1017

Aika: 15:36 (14:36 UTC)

Sääennuste

Tämä raportti tehtiin 3 tuntia ja 36 minuuttia sitten, kello 11.00 UTC
Ennuste voimassa 27. päivästä klo 12 UTC - 28. päivään klo 12 UTC
Tuuli 13 kn pohjoisesta
Näkyvyys 10 km tai enemmän
Muutamia pilviä 1500 ft:n korkeudessa
Todennäköisyys 40% :
Ajoittain
27. päivästä klo 12 UTC - 27. päivään klo 18 UTC
Tuuli 18 kn pohjoisesta/koillisesta puuskistuen 28 kn:hen

TAF: LPMA 271100Z 2712/2812 01013KT 9999 FEW015 PROB40 TEMPO 2712/2718 02018G28KT

Säähavainnot ja -ennusteet yli 4000 lentoasemalta (METAR- ja TAF-raportit).

Käytössä olevat sääasemat on merkitty karttaan keltaisilla ja punaisilla pisteillä.

Aseta hiiri pisteen päälle nähdäksesi sääaseman nimen.

Klikkaa sitten nähdäksesi säähavainnot ja -ennusteet.

Kartan vaihtaminen: klikkaa mustalla rastilla varustettuja vihreitä pisteitä, niin voit zoomata sisään; viivalla varustettua vihreää pistettä, niin voit zoomata ulos tai vihreitä nuolia, niin pääset viereisille kartoille.


METAR-TAF: